Terminal Aerodrome Forecast
Issued by NWS

Home | Current Version | Previous Version | Text Only | Print | Product List | Glossary On
Versions: 1 2 3 4 5 6 7 8 9 10 11 12 13
000
FTUS45 KLKN 201720
TAFTPH
TAF
KTPH 201720Z 2018/2118 35008KT P6SM FEW110
     FM201900 19010G20KT P6SM VCSH SCT110
     FM210300 VRB06KT P6SM FEW150
     FM211500 VRB05KT P6SM BKN120 BKN220=

USA.gov is the U.S. government's official web portal to all federal, state and local government web resources and services.